Aeroporto :
LOGIN :

Iscrizione | Disclaimer

   EN    FR    IT 

 










Sommario :    VFR   VFR Marginale   IFR   IFR Intensivo   IFR Molto Intensivo
Visibilità : 
Base nubi : 
>= 8 km
>= 3000ft
5 / 8 km
1000 / 3000 ft
1500m / 5 km
500 / 1000 ft
800 / 1500m
200 / 500 ft
< 800m
< 200 ft
Simboli :   Temporali  Nebbia  Neve Forte  Precipitazioni Forti  Vento > 20 kt
SIGMETs :   Varie  Temporali  Ghiacco  Turbolenza  Onda orograficha  Ceneri Vulcaniche






- Altitudine del aeroporto : 755 ft
- Codice IATA : DRS


EDDC - Dresden Klotzsche

ULTIMO METAR :
  • 262350Z VRB02KT 9000 FEW026 BKN039 01/00 Q1016

METARs OBSOLETI :
  • 262320Z 16005KT 120V220 9000 BKN037 01/M00 Q1016
  • 262250Z 17005KT 130V220 9000 -DZ BKN037 01/M00 Q1016
  • 262220Z 16007KT 9000 -DZ BKN040 01/M01 Q1016
  • 262150Z 18005KT 140V220 9999 FEW037 01/M01 Q1016
  • 262120Z 20005KT 150V230 9999 SCT045 01/M01 Q1017

TAF TAF EDDC
Valido dal 27 a 00 ore il 28 a 00 ore UTC


262300Z 2700/2724 18008KT 9999 SCT045
BECMG 2717/2719 16013KT



MetMap, La meteo Aeronautica in un colpo d'occhio ! - Copyright ORBIFLY Dicembre 2007 - Disclaimer

ORBIFLY MET'MAP TEAM :

Programmazione e sviluppo : Alexandra Zaïnal
Concezione : Baudouin d'Aumeries
Aiuto per la programmazione : Marc-Olivier Méhu
Supporto tecnico e logistico : Manuel Goepfert
Aiuto per la traduzione : Arnaldo La Scala

Contatto : metmap@orbifly.com




FONTI E CREDITI :

   NOAA